createdAt,value
2023-02-19T00:01:38.009Z,3.22
2023-02-19T00:04:42.044Z,3.17
2023-02-19T00:07:45.171Z,3.12
2023-02-19T00:10:54.956Z,3.09
2023-02-19T00:14:00.679Z,3.09
2023-02-19T00:17:04.404Z,3.08
2023-02-19T00:20:13.772Z,3.06
2023-02-19T00:23:16.983Z,3.02
2023-02-19T01:55:20.909Z,2.76
2023-02-19T01:58:28.293Z,2.75
2023-02-19T02:01:30.549Z,2.72
2023-02-19T02:04:34.953Z,2.71
2023-02-19T02:07:56.725Z,2.70
2023-02-19T02:11:02.067Z,2.71
2023-02-19T02:14:10.080Z,2.71
2023-02-19T02:17:19.996Z,2.70
2023-02-19T02:20:41.345Z,2.69
2023-02-19T02:24:12.613Z,2.69
2023-02-19T02:27:42.336Z,2.67
2023-02-19T02:31:33.763Z,2.68
2023-02-19T02:34:58.290Z,2.69
2023-02-19T02:38:05.853Z,2.70
2023-02-19T02:41:13.078Z,2.68
2023-02-19T02:44:17.043Z,2.62
2023-02-19T02:47:41.704Z,2.54
2023-02-19T02:51:04.016Z,2.44
2023-02-19T02:54:50.680Z,2.35
2023-02-19T02:57:56.820Z,2.27
2023-02-19T03:01:34.989Z,2.21
2023-02-19T03:05:20.183Z,2.16
2023-02-19T03:08:30.013Z,2.10
2023-02-19T03:11:55.181Z,2.04
2023-02-19T03:15:25.035Z,1.97
2023-02-19T03:18:52.441Z,1.91
2023-02-19T03:22:24.421Z,1.87
2023-02-19T03:25:52.272Z,1.83
2023-02-19T03:29:21.703Z,1.78
2023-02-19T03:32:33.540Z,1.74
2023-02-19T03:35:47.947Z,1.70
2023-02-19T03:39:00.882Z,1.66
2023-02-19T03:42:41.869Z,1.62
2023-02-19T03:46:29.135Z,1.57
2023-02-19T03:50:02.907Z,1.52
2023-02-19T03:53:29.710Z,1.47
2023-02-19T03:56:48.540Z,1.42
2023-02-19T04:00:32.001Z,1.39
2023-02-19T04:03:42.737Z,1.37
2023-02-19T04:06:53.814Z,1.36
2023-02-19T04:09:56.583Z,1.34
2023-02-19T04:13:09.491Z,1.32
2023-02-19T04:16:20.276Z,1.29
2023-02-19T04:19:31.154Z,1.29
2023-02-19T04:22:37.498Z,1.26
2023-02-19T04:25:45.236Z,1.23
2023-02-19T04:28:49.312Z,1.21
2023-02-19T04:31:51.679Z,1.18
2023-02-19T04:34:55.146Z,1.16
2023-02-19T04:37:58.944Z,1.14
2023-02-19T04:41:04.169Z,1.12
2023-02-19T04:44:07.280Z,1.09
2023-02-19T04:47:10.148Z,1.05
2023-02-19T04:50:14.371Z,1.01
2023-02-19T04:53:18.074Z,0.98
2023-02-19T04:56:23.598Z,0.96
2023-02-19T04:59:26.079Z,0.92
2023-02-19T05:02:30.394Z,0.89
2023-02-19T05:05:33.957Z,0.85
2023-02-19T05:08:41.381Z,0.82
2023-02-19T05:11:43.554Z,0.79
2023-02-19T05:14:46.557Z,0.77
2023-02-19T05:17:50.246Z,0.74
2023-02-19T05:20:52.740Z,0.72
2023-02-19T05:23:55.431Z,0.71
2023-02-19T05:26:59.670Z,0.68
2023-02-19T05:30:04.156Z,0.66
2023-02-19T05:33:07.204Z,0.62
2023-02-19T05:36:12.624Z,0.62
2023-02-19T05:39:16.613Z,0.60
2023-02-19T05:42:21.344Z,0.58
2023-02-19T05:45:29.648Z,0.58
2023-02-19T05:48:32.297Z,0.59
2023-02-19T05:51:37.588Z,0.59
2023-02-19T05:54:40.661Z,0.61
2023-02-19T05:57:45.672Z,0.63
2023-02-19T06:00:50.366Z,0.66
2023-02-19T06:03:55.464Z,0.68
2023-02-19T06:06:59.228Z,0.72
2023-02-19T06:10:06.669Z,0.75
2023-02-19T06:13:14.247Z,0.79
2023-02-19T06:16:23.600Z,0.82
2023-02-19T06:31:24.674Z,0.92
2023-02-19T06:34:32.957Z,0.92
2023-02-19T06:37:35.246Z,0.95
2023-02-19T06:40:41.694Z,0.99
2023-02-19T06:43:46.072Z,1.03
2023-02-19T06:46:56.162Z,1.10
2023-02-19T06:50:01.589Z,1.16
2023-02-19T06:53:04.045Z,1.23
2023-02-19T06:56:27.164Z,1.30
2023-02-19T06:59:29.769Z,1.36
2023-02-19T07:02:32.566Z,1.42
2023-02-19T07:05:44.153Z,1.46
2023-02-19T07:08:49.015Z,1.52
2023-02-19T07:11:52.603Z,1.60
2023-02-19T07:14:57.996Z,1.66
2023-02-19T07:18:06.644Z,1.70
2023-02-19T07:21:12.774Z,1.76
2023-02-19T07:24:17.411Z,1.82
2023-02-19T07:27:20.618Z,1.87
2023-02-19T07:30:26.166Z,1.93
2023-02-19T07:33:28.374Z,1.99
2023-02-19T07:36:31.456Z,2.09
2023-02-19T07:39:35.181Z,2.18
2023-02-19T07:42:38.485Z,2.25
2023-02-19T07:46:21.285Z,2.38
2023-02-19T07:49:28.446Z,2.49
2023-02-19T07:52:35.026Z,2.53
2023-02-19T07:55:37.014Z,2.58
2023-02-19T07:58:42.999Z,2.66
2023-02-19T08:02:04.494Z,2.71
2023-02-19T08:05:10.527Z,2.78
2023-02-19T08:08:15.577Z,2.87
2023-02-19T08:11:41.500Z,2.91
2023-02-19T08:14:46.375Z,2.93
2023-02-19T08:17:53.536Z,2.97
2023-02-19T08:21:02.453Z,2.99
2023-02-19T08:24:08.450Z,2.95
2023-02-19T08:27:15.896Z,2.90
2023-02-19T08:30:19.149Z,2.82
2023-02-19T08:33:24.201Z,2.77
2023-02-19T08:36:31.011Z,2.77
2023-02-19T08:39:36.448Z,2.76
2023-02-19T08:42:40.164Z,2.76
2023-02-19T08:45:47.603Z,2.78
2023-02-19T08:48:55.007Z,2.82
2023-02-19T08:51:58.147Z,2.88
2023-02-19T08:55:05.827Z,2.90
2023-02-19T08:58:12.936Z,2.95
2023-02-19T09:01:19.433Z,2.99
2023-02-19T09:04:28.346Z,3.04
2023-02-19T09:07:31.737Z,3.12
2023-02-19T09:10:35.349Z,3.16
2023-02-19T09:13:44.796Z,3.16
2023-02-19T09:16:49.886Z,3.17
2023-02-19T09:19:55.030Z,3.12
2023-02-19T09:22:58.982Z,3.06
2023-02-19T09:26:08.849Z,3.02
2023-02-19T09:29:12.744Z,3.06
2023-02-19T09:32:19.148Z,3.08
2023-02-19T09:35:24.046Z,3.00
2023-02-19T09:38:31.387Z,2.91
2023-02-19T09:41:44.708Z,2.87
2023-02-19T09:44:52.562Z,2.86
2023-02-19T09:47:58.286Z,2.93
2023-02-19T09:51:03.007Z,2.97
2023-02-19T09:54:07.591Z,3.01
2023-02-19T09:57:21.219Z,3.07
2023-02-19T10:00:26.151Z,3.12
2023-02-19T10:03:35.488Z,3.22
2023-02-19T10:18:55.394Z,3.78
2023-02-19T10:22:05.232Z,3.86
2023-02-19T10:25:19.679Z,3.88
2023-02-19T10:28:29.686Z,3.86
2023-02-19T10:31:39.561Z,3.91
2023-02-19T10:34:43.241Z,3.96
2023-02-19T10:37:50.505Z,4.00
2023-02-19T10:40:59.198Z,4.00
2023-02-19T10:44:13.779Z,3.99
2023-02-19T10:47:22.436Z,3.98
2023-02-19T10:50:38.779Z,4.06
2023-02-19T10:53:44.746Z,4.12
2023-02-19T10:56:47.691Z,4.14
2023-02-19T11:00:26.311Z,4.13
2023-02-19T11:03:30.948Z,4.13
2023-02-19T11:06:35.115Z,4.19
2023-02-19T11:09:46.453Z,4.26
2023-02-19T11:12:53.023Z,4.32
2023-02-19T11:15:57.180Z,4.33
2023-02-19T11:19:00.429Z,4.34
2023-02-19T11:22:27.141Z,4.27
2023-02-19T11:25:30.582Z,4.20
2023-02-19T11:28:40.329Z,4.14
2023-02-19T11:31:45.955Z,4.12
2023-02-19T11:34:49.187Z,4.11
2023-02-19T11:38:00.713Z,4.09
2023-02-19T11:41:39.587Z,4.07
2023-02-19T11:45:13.416Z,4.07
2023-02-19T11:48:20.668Z,4.09
2023-02-19T11:51:41.953Z,4.12
2023-02-19T11:55:00.523Z,4.13
2023-02-19T11:58:24.814Z,4.15
2023-02-19T12:01:54.809Z,4.17
2023-02-19T12:05:01.182Z,4.24
2023-02-19T12:08:42.952Z,4.25
2023-02-19T12:12:25.078Z,4.22
2023-02-19T12:15:35.659Z,4.22
2023-02-19T12:18:42.946Z,4.16
2023-02-19T12:22:15.423Z,4.09
2023-02-19T12:25:48.005Z,4.08
2023-02-19T12:29:04.140Z,4.11
2023-02-19T12:32:35.650Z,4.11
2023-02-19T12:36:18.021Z,4.07
2023-02-19T12:39:37.710Z,3.97
2023-02-19T12:43:10.349Z,3.94
2023-02-19T12:46:30.558Z,3.90
2023-02-19T12:49:57.143Z,3.86
2023-02-19T12:53:28.924Z,3.83
2023-02-19T12:57:07.792Z,3.76
2023-02-19T13:00:35.430Z,3.73
2023-02-19T13:03:45.587Z,3.73
2023-02-19T13:07:21.922Z,3.74
2023-02-19T13:10:46.359Z,3.70
2023-02-19T13:13:59.785Z,3.66
2023-02-19T13:17:20.986Z,3.65
2023-02-19T13:21:00.763Z,3.66
2023-02-19T13:24:35.828Z,3.66
2023-02-19T13:27:57.272Z,3.66
2023-02-19T13:31:12.677Z,3.65
2023-02-19T13:34:51.270Z,3.64
2023-02-19T13:41:29.118Z,3.70
2023-02-19T13:44:34.204Z,3.71
2023-02-19T13:48:27.026Z,3.72
2023-02-19T13:51:29.441Z,3.74
2023-02-19T13:54:40.093Z,3.71
2023-02-19T13:57:47.063Z,3.71
2023-02-19T14:01:11.169Z,3.70
2023-02-19T14:04:44.024Z,3.66
2023-02-19T14:07:53.583Z,3.63
2023-02-19T14:11:04.498Z,3.57
2023-02-19T14:14:27.684Z,3.57
2023-02-19T14:17:50.314Z,3.55
2023-02-19T14:21:27.762Z,3.54
2023-02-19T14:24:34.070Z,3.59
2023-02-19T14:27:37.938Z,3.63
2023-02-19T14:30:56.407Z,3.65
2023-02-19T14:34:03.104Z,3.64
2023-02-19T14:37:19.322Z,3.62
2023-02-19T14:40:48.562Z,3.57
2023-02-19T14:43:56.009Z,3.49
2023-02-19T14:47:15.210Z,3.45
2023-02-19T14:50:27.981Z,3.43
2023-02-19T14:53:34.989Z,3.40
2023-02-19T14:56:40.937Z,3.35
2023-02-19T14:59:58.827Z,3.30
2023-02-19T15:03:02.985Z,3.26
2023-02-19T15:06:12.666Z,3.21
2023-02-19T15:09:19.048Z,3.17
2023-02-19T15:13:02.756Z,3.17
2023-02-19T15:16:10.369Z,3.11
2023-02-19T15:19:16.326Z,3.08
2023-02-19T15:22:24.843Z,3.05
2023-02-19T15:25:38.130Z,3.05
2023-02-19T15:28:45.335Z,3.02
2023-02-19T15:32:18.390Z,3.00
2023-02-19T15:35:29.286Z,3.00
2023-02-19T15:38:33.438Z,2.99
2023-02-19T15:41:38.332Z,2.95
2023-02-19T15:45:20.485Z,2.92
2023-02-19T15:48:39.884Z,2.91
2023-02-19T15:51:54.928Z,2.88
2023-02-19T15:55:19.390Z,2.88
2023-02-19T15:59:04.844Z,2.90
2023-02-19T16:02:17.105Z,2.91
2023-02-19T16:05:27.290Z,2.90
2023-02-19T16:08:39.837Z,2.87
2023-02-19T16:11:55.820Z,2.85
2023-02-19T16:15:02.432Z,2.85
2023-02-19T16:18:05.584Z,2.85
2023-02-19T16:21:12.274Z,2.84
2023-02-19T16:24:26.919Z,2.83
2023-02-19T16:27:42.206Z,2.78
2023-02-19T16:30:44.256Z,2.77
2023-02-19T16:34:31.810Z,2.77
2023-02-19T16:37:59.407Z,2.78
2023-02-19T16:41:24.019Z,2.78
2023-02-19T16:44:43.770Z,2.79
2023-02-19T16:51:41.614Z,2.71
2023-02-19T16:54:44.396Z,2.69
2023-02-19T16:57:55.744Z,2.66
2023-02-19T17:01:55.578Z,2.67
2023-02-19T17:05:02.219Z,2.69
2023-02-19T17:08:46.100Z,2.69
2023-02-19T17:11:54.507Z,2.65
2023-02-19T17:15:01.921Z,2.62
2023-02-19T17:18:12.643Z,2.58
2023-02-19T17:21:27.131Z,2.51
2023-02-19T17:24:29.686Z,2.42
2023-02-19T17:27:38.992Z,2.33
2023-02-19T17:30:43.472Z,2.23
2023-02-19T17:33:48.982Z,2.15
2023-02-19T17:37:06.320Z,2.06
2023-02-19T17:40:34.041Z,2.01
2023-02-19T17:43:41.768Z,1.97
2023-02-19T17:46:51.208Z,1.97
2023-02-19T17:49:57.307Z,1.95
2023-02-19T17:53:11.743Z,1.92
2023-02-19T17:56:25.933Z,1.91
2023-02-19T17:59:38.105Z,1.91
2023-02-19T18:02:48.942Z,1.92
2023-02-19T18:05:56.169Z,1.94
2023-02-19T18:09:03.689Z,1.94
2023-02-19T18:12:14.124Z,1.92
2023-02-19T18:15:34.773Z,1.92
2023-02-19T18:19:02.917Z,1.94
2023-02-19T18:22:17.686Z,1.97
2023-02-19T18:25:24.687Z,1.95
2023-02-19T18:28:31.772Z,1.93
2023-02-19T18:31:37.708Z,1.90
2023-02-19T18:34:42.860Z,1.86
2023-02-19T18:37:49.525Z,1.84
2023-02-19T18:41:00.394Z,1.80
2023-02-19T18:44:04.825Z,1.76
2023-02-19T18:47:13.153Z,1.72
2023-02-19T18:50:19.378Z,1.68
2023-02-19T18:53:24.142Z,1.65
2023-02-19T18:59:48.659Z,1.61
2023-02-19T19:02:59.837Z,1.58
2023-02-19T19:06:06.377Z,1.55
2023-02-19T19:09:17.801Z,1.51
2023-02-19T19:12:30.342Z,1.45
2023-02-19T19:15:44.858Z,1.42
2023-02-19T19:18:52.818Z,1.38
2023-02-19T19:21:57.010Z,1.33
2023-02-19T19:25:06.257Z,1.27
2023-02-19T19:28:23.957Z,1.19
2023-02-19T19:31:39.698Z,1.15
2023-02-19T19:34:52.184Z,1.12
2023-02-19T19:37:59.231Z,1.12
2023-02-19T19:41:06.537Z,1.15
2023-02-19T19:44:13.879Z,1.19
2023-02-19T19:47:24.904Z,1.22
2023-02-19T19:50:32.190Z,1.23
2023-02-19T19:53:47.710Z,1.23
2023-02-19T19:56:56.019Z,1.23
2023-02-19T20:00:09.451Z,1.25
2023-02-19T20:03:19.580Z,1.24
2023-02-19T20:06:30.934Z,1.22
2023-02-19T20:09:36.480Z,1.18
2023-02-19T20:12:43.250Z,1.13
2023-02-19T20:15:48.686Z,1.07
2023-02-19T20:18:51.772Z,1.02
2023-02-19T20:22:10.422Z,0.96
2023-02-19T20:25:13.820Z,0.88
2023-02-19T20:28:19.487Z,0.83
2023-02-19T20:31:34.679Z,0.79
2023-02-19T20:34:40.213Z,0.73
2023-02-19T20:37:43.800Z,0.68
2023-02-19T20:40:46.071Z,0.64
2023-02-19T20:43:49.873Z,0.61
2023-02-19T20:46:53.111Z,0.57
2023-02-19T20:49:58.296Z,0.55
2023-02-19T20:53:03.725Z,0.52
2023-02-19T20:56:09.178Z,0.50
2023-02-19T20:59:14.671Z,0.45
2023-02-19T21:02:21.409Z,0.40
2023-02-19T21:05:24.895Z,0.36
2023-02-19T21:08:28.984Z,0.33
2023-02-19T21:11:32.110Z,0.28
2023-02-19T21:14:36.748Z,0.24
2023-02-19T21:17:39.190Z,0.19
2023-02-19T21:20:42.720Z,0.15
2023-02-19T21:23:45.647Z,0.10
2023-02-19T21:26:52.549Z,0.05
2023-02-19T21:29:54.765Z,0.00
2023-02-19T21:33:01.234Z,-0.04
2023-02-19T21:36:05.911Z,-0.06
2023-02-19T21:39:10.184Z,-0.10
2023-02-19T21:42:14.798Z,-0.14
2023-02-19T21:45:19.448Z,-0.18
2023-02-19T21:48:24.850Z,-0.21
2023-02-19T21:51:31.214Z,-0.23
2023-02-19T21:54:34.670Z,-0.24
2023-02-19T21:57:38.068Z,-0.27
2023-02-19T22:00:40.146Z,-0.32
2023-02-19T22:03:42.566Z,-0.35
2023-02-19T22:06:45.912Z,-0.40
2023-02-19T22:09:59.324Z,-0.41
2023-02-19T22:13:02.799Z,-0.45
2023-02-19T22:16:10.103Z,-0.49
2023-02-19T22:19:14.818Z,-0.53
2023-02-19T22:22:20.106Z,-0.55
2023-02-19T22:25:22.987Z,-0.57
2023-02-19T22:28:26.086Z,-0.61
2023-02-19T22:31:28.196Z,-0.65
2023-02-19T22:34:37.333Z,-0.67
2023-02-19T22:37:40.574Z,-0.68
2023-02-19T22:40:43.268Z,-0.70
2023-02-19T22:43:45.728Z,-0.72
2023-02-19T22:46:53.012Z,-0.74
2023-02-19T22:54:48.049Z,-0.78
2023-02-19T22:57:50.022Z,-0.84
2023-02-19T23:00:56.111Z,-0.88
2023-02-19T23:04:01.504Z,-0.92
2023-02-19T23:07:06.229Z,-0.95
2023-02-19T23:10:08.891Z,-0.96
2023-02-19T23:13:16.649Z,-0.96
2023-02-19T23:16:19.572Z,-0.99
2023-02-19T23:19:21.862Z,-1.02
2023-02-19T23:22:24.282Z,-1.05
2023-02-19T23:25:26.667Z,-1.05
2023-02-19T23:28:32.587Z,-1.07
2023-02-19T23:31:36.495Z,-1.11
2023-02-19T23:34:40.230Z,-1.13
2023-02-19T23:37:43.089Z,-1.14
2023-02-19T23:40:45.080Z,-1.16
2023-02-19T23:43:49.928Z,-1.20
2023-02-19T23:46:52.769Z,-1.24
2023-02-19T23:49:54.871Z,-1.26
2023-02-19T23:52:58.735Z,-1.26
2023-02-19T23:56:01.569Z,-1.27
2023-02-19T23:59:03.746Z,-1.29
